createdAt,value
2022-09-26T00:01:32.667Z,11.49
2022-09-26T00:04:02.620Z,11.38
2022-09-26T00:06:29.999Z,11.32
2022-09-26T00:08:57.363Z,11.22
2022-09-26T00:11:27.251Z,11.21
2022-09-26T00:13:56.629Z,11.15
2022-09-26T00:16:24.570Z,11.10
2022-09-26T00:18:53.599Z,11.02
2022-09-26T00:21:25.463Z,11.05
2022-09-26T00:23:53.229Z,11.01
2022-09-26T00:26:21.747Z,11.03
2022-09-26T00:28:48.845Z,11.03
2022-09-26T00:31:19.464Z,10.95
2022-09-26T00:33:47.025Z,10.91
2022-09-26T00:36:14.461Z,10.90
2022-09-26T00:38:41.294Z,10.80
2022-09-26T00:41:08.751Z,10.75
2022-09-26T00:43:41.344Z,10.73
2022-09-26T00:46:31.519Z,10.75
2022-09-26T00:49:13.492Z,10.71
2022-09-26T00:51:44.193Z,10.70
2022-09-26T00:54:14.653Z,10.62
2022-09-26T00:56:43.569Z,10.55
2022-09-26T00:59:28.451Z,10.55
2022-09-26T01:01:58.943Z,10.55
2022-09-26T01:04:28.332Z,10.59
2022-09-26T01:07:01.680Z,10.64
2022-09-26T01:09:29.138Z,10.64
2022-09-26T01:11:56.795Z,10.66
2022-09-26T01:14:24.634Z,10.68
2022-09-26T01:16:51.615Z,10.62
2022-09-26T01:19:37.357Z,10.57
2022-09-26T01:22:44.644Z,10.52
2022-09-26T01:25:39.941Z,10.51
2022-09-26T01:28:28.216Z,10.50
2022-09-26T01:31:23.093Z,10.57
2022-09-26T01:34:31.923Z,10.60
2022-09-26T01:37:17.821Z,10.74
2022-09-26T01:39:55.077Z,10.75
2022-09-26T01:42:52.705Z,10.64
2022-09-26T01:45:24.829Z,10.52
2022-09-26T01:48:03.211Z,10.37
2022-09-26T01:50:38.380Z,10.33
2022-09-26T01:53:16.087Z,10.37
2022-09-26T01:55:48.181Z,10.33
2022-09-26T01:58:21.375Z,10.37
2022-09-26T02:00:50.180Z,10.39
2022-09-26T02:03:21.562Z,10.38
2022-09-26T02:06:03.092Z,10.39
2022-09-26T02:08:38.982Z,10.39
2022-09-26T02:11:10.782Z,10.36
2022-09-26T02:13:44.018Z,10.35
2022-09-26T02:16:16.080Z,10.34
2022-09-26T02:18:50.898Z,10.39
2022-09-26T02:21:22.894Z,10.47
2022-09-26T02:23:52.138Z,10.45
2022-09-26T02:26:19.288Z,10.41
2022-09-26T02:28:46.523Z,10.38
2022-09-26T02:31:21.081Z,10.38
2022-09-26T02:33:52.091Z,10.30
2022-09-26T02:36:21.081Z,10.20
2022-09-26T02:38:48.059Z,10.16
2022-09-26T02:41:36.113Z,10.14
2022-09-26T02:44:13.589Z,10.16
2022-09-26T02:46:56.393Z,10.22
2022-09-26T02:49:49.640Z,10.17
2022-09-26T02:52:33.655Z,10.17
2022-09-26T02:55:19.029Z,10.19
2022-09-26T02:57:54.602Z,10.22
2022-09-26T03:00:25.601Z,10.24
2022-09-26T03:03:12.187Z,10.30
2022-09-26T03:05:42.982Z,10.32
2022-09-26T03:08:18.417Z,10.35
2022-09-26T03:10:47.409Z,10.37
2022-09-26T03:13:16.725Z,10.41
2022-09-26T03:15:48.606Z,10.39
2022-09-26T03:18:20.738Z,10.35
2022-09-26T03:20:48.465Z,10.29
2022-09-26T03:23:15.541Z,10.26
2022-09-26T03:25:42.733Z,10.26
2022-09-26T03:28:10.166Z,10.23
2022-09-26T03:30:37.183Z,10.30
2022-09-26T03:33:03.944Z,10.33
2022-09-26T03:35:30.781Z,10.39
2022-09-26T03:37:57.479Z,10.38
2022-09-26T03:40:24.324Z,10.42
2022-09-26T03:42:51.036Z,10.45
2022-09-26T03:45:17.769Z,10.43
2022-09-26T03:47:44.491Z,10.38
2022-09-26T03:50:11.321Z,10.33
2022-09-26T03:52:38.039Z,10.24
2022-09-26T03:55:05.176Z,10.24
2022-09-26T03:57:31.841Z,10.16
2022-09-26T03:59:58.546Z,10.06
2022-09-26T04:02:25.358Z,10.02
2022-09-26T04:04:52.275Z,10.06
2022-09-26T04:07:18.921Z,10.15
2022-09-26T04:09:45.636Z,10.18
2022-09-26T04:12:12.350Z,10.23
2022-09-26T04:14:39.017Z,10.23
2022-09-26T04:17:08.369Z,10.25
2022-09-26T04:19:35.142Z,10.17
2022-09-26T04:22:01.937Z,10.09
2022-09-26T04:24:32.734Z,10.07
2022-09-26T04:27:00.708Z,10.02
2022-09-26T04:29:27.501Z,9.94
2022-09-26T04:31:54.195Z,9.95
2022-09-26T04:34:27.212Z,9.93
2022-09-26T04:36:54.531Z,9.95
2022-09-26T04:39:21.209Z,9.88
2022-09-26T04:41:47.851Z,9.84
2022-09-26T04:44:15.145Z,9.79
2022-09-26T04:46:41.934Z,9.78
2022-09-26T04:49:11.522Z,9.75
2022-09-26T04:51:38.299Z,9.73
2022-09-26T04:54:05.129Z,9.63
2022-09-26T04:56:32.165Z,9.59
2022-09-26T04:58:59.399Z,9.56
2022-09-26T05:01:27.478Z,9.59
2022-09-26T05:03:55.716Z,9.57
2022-09-26T05:06:22.487Z,9.50
2022-09-26T05:08:49.310Z,9.47
2022-09-26T05:11:17.625Z,9.44
2022-09-26T05:13:45.097Z,9.41
2022-09-26T05:16:13.073Z,9.44
2022-09-26T05:18:40.095Z,9.46
2022-09-26T05:21:07.436Z,9.47
2022-09-26T05:23:53.990Z,9.46
2022-09-26T05:26:38.957Z,9.48
2022-09-26T05:29:08.903Z,9.50
2022-09-26T05:31:37.856Z,9.46
2022-09-26T05:34:07.440Z,9.41
2022-09-26T05:36:34.805Z,9.45
2022-09-26T05:39:01.780Z,9.52
2022-09-26T05:41:31.163Z,9.54
2022-09-26T05:43:58.625Z,9.55
2022-09-26T05:46:27.977Z,9.51
2022-09-26T05:48:55.811Z,9.42
2022-09-26T05:51:23.302Z,9.40
2022-09-26T05:53:50.186Z,9.44
2022-09-26T05:56:19.616Z,9.40
2022-09-26T05:58:47.163Z,9.41
2022-09-26T06:01:18.784Z,9.54
2022-09-26T06:03:46.894Z,9.62
2022-09-26T06:06:18.897Z,9.57
2022-09-26T06:08:46.422Z,9.51
2022-09-26T06:11:15.784Z,9.47
2022-09-26T06:13:45.515Z,9.49
2022-09-26T06:16:18.252Z,9.49
2022-09-26T06:18:46.810Z,9.51
2022-09-26T06:21:15.626Z,9.58
2022-09-26T06:23:42.645Z,9.57
2022-09-26T06:26:17.171Z,9.60
2022-09-26T06:28:43.993Z,9.64
2022-09-26T06:31:13.114Z,9.70
2022-09-26T06:33:39.912Z,9.76
2022-09-26T06:36:08.744Z,9.76
2022-09-26T06:38:35.696Z,9.83
2022-09-26T06:41:03.051Z,9.86
2022-09-26T06:43:29.927Z,9.95
2022-09-26T06:45:57.072Z,10.03
2022-09-26T06:48:25.617Z,10.14
2022-09-26T06:50:54.029Z,10.23
2022-09-26T06:53:21.566Z,10.29
2022-09-26T06:55:48.590Z,10.31
2022-09-26T06:58:15.320Z,10.39
2022-09-26T07:00:42.072Z,10.44
2022-09-26T07:03:08.917Z,10.53
2022-09-26T07:05:35.924Z,10.58
2022-09-26T07:08:03.229Z,10.62
2022-09-26T07:10:30.357Z,10.68
2022-09-26T07:13:05.150Z,10.75
2022-09-26T07:15:34.259Z,10.83
2022-09-26T07:18:03.154Z,10.97
2022-09-26T07:20:32.680Z,11.04
2022-09-26T07:23:04.490Z,11.08
2022-09-26T07:25:31.862Z,11.10
2022-09-26T07:27:59.490Z,11.14
2022-09-26T07:30:28.136Z,11.19
2022-09-26T07:33:03.557Z,11.34
2022-09-26T07:35:32.329Z,11.41
2022-09-26T07:37:59.335Z,11.44
2022-09-26T07:40:27.055Z,11.51
2022-09-26T07:43:09.563Z,11.64
2022-09-26T07:45:59.009Z,11.72
2022-09-26T07:48:44.152Z,11.74
2022-09-26T07:51:11.691Z,11.78
2022-09-26T07:53:41.139Z,11.79
2022-09-26T07:56:12.070Z,11.79
2022-09-26T07:58:44.430Z,11.89
2022-09-26T08:01:13.742Z,11.95
2022-09-26T08:03:50.172Z,12.08
2022-09-26T08:06:20.852Z,12.30
2022-09-26T08:08:48.146Z,12.59
2022-09-26T08:11:17.388Z,12.88
2022-09-26T08:13:45.188Z,13.19
2022-09-26T08:16:15.141Z,13.43
2022-09-26T08:18:41.915Z,13.65
2022-09-26T08:21:08.771Z,13.88
2022-09-26T08:23:35.690Z,14.12
2022-09-26T08:26:09.702Z,14.33
2022-09-26T08:28:37.868Z,14.51
2022-09-26T08:31:05.928Z,14.72
2022-09-26T08:33:35.340Z,14.99
2022-09-26T08:36:11.427Z,15.32
2022-09-26T08:38:38.886Z,15.50
2022-09-26T08:41:14.669Z,15.73
2022-09-26T08:44:07.712Z,15.98
2022-09-26T08:46:49.047Z,16.29
2022-09-26T08:49:30.900Z,16.42
2022-09-26T08:52:01.303Z,16.62
2022-09-26T08:54:37.312Z,16.74
2022-09-26T08:57:21.939Z,17.02
2022-09-26T08:59:49.107Z,17.25
2022-09-26T09:02:47.965Z,17.35
2022-09-26T09:05:32.855Z,17.05
2022-09-26T09:08:03.004Z,17.06
2022-09-26T09:11:09.398Z,17.19
2022-09-26T09:14:13.734Z,17.50
2022-09-26T09:17:02.400Z,17.63
2022-09-26T09:19:50.542Z,17.78
2022-09-26T09:22:52.486Z,17.95
2022-09-26T09:25:39.161Z,17.61
2022-09-26T09:28:50.750Z,17.65
2022-09-26T09:31:21.337Z,17.53
2022-09-26T09:33:58.657Z,17.68
2022-09-26T09:36:31.962Z,17.42
2022-09-26T09:39:06.088Z,17.12
2022-09-26T09:41:46.433Z,17.22
2022-09-26T09:44:31.810Z,17.73
2022-09-26T09:46:58.984Z,18.31
2022-09-26T09:49:26.433Z,17.91
2022-09-26T09:51:55.813Z,17.85
2022-09-26T09:54:41.524Z,17.96
2022-09-26T09:57:29.414Z,17.53
2022-09-26T10:00:08.340Z,17.49
2022-09-26T10:02:38.161Z,17.63
2022-09-26T10:05:17.126Z,17.61
2022-09-26T10:07:45.064Z,17.68
2022-09-26T10:10:16.126Z,18.13
2022-09-26T10:12:43.472Z,18.42
2022-09-26T10:15:19.645Z,18.76
2022-09-26T10:18:23.419Z,18.87
2022-09-26T10:21:19.128Z,18.74
2022-09-26T10:23:48.854Z,18.44
2022-09-26T10:26:27.654Z,18.41
2022-09-26T10:28:58.016Z,18.35
2022-09-26T10:31:30.061Z,18.55
2022-09-26T10:34:00.266Z,18.68
2022-09-26T10:36:35.005Z,18.81
2022-09-26T10:39:38.553Z,18.95
2022-09-26T10:42:20.072Z,19.09
2022-09-26T10:44:50.458Z,18.65
2022-09-26T10:47:22.067Z,18.37
2022-09-26T10:50:11.607Z,18.25
2022-09-26T10:52:43.366Z,17.89
2022-09-26T10:55:15.833Z,17.61
2022-09-26T10:57:53.382Z,17.45
2022-09-26T11:00:36.888Z,17.54
2022-09-26T11:03:10.584Z,18.06
2022-09-26T11:05:59.316Z,17.91
2022-09-26T11:08:31.833Z,17.53
2022-09-26T11:11:04.364Z,17.24
2022-09-26T11:14:08.543Z,17.29
2022-09-26T11:16:49.490Z,17.34
2022-09-26T11:19:53.796Z,17.32
2022-09-26T11:22:37.249Z,17.36
2022-09-26T11:25:22.497Z,17.45
2022-09-26T11:27:55.043Z,17.58
2022-09-26T11:30:23.007Z,19.33
2022-09-26T11:32:56.263Z,20.56
2022-09-26T11:35:26.169Z,21.09
2022-09-26T11:38:13.765Z,21.91
2022-09-26T11:41:03.323Z,22.23
2022-09-26T11:44:19.255Z,22.55
2022-09-26T11:47:07.527Z,23.72
2022-09-26T11:50:00.979Z,24.36
2022-09-26T11:53:00.308Z,24.63
2022-09-26T11:55:39.812Z,24.81
2022-09-26T11:58:36.571Z,24.62
2022-09-26T12:01:28.078Z,24.97
2022-09-26T12:04:07.853Z,23.79
2022-09-26T12:06:46.980Z,22.71
2022-09-26T12:09:52.360Z,21.35
2022-09-26T12:12:47.180Z,20.77
2022-09-26T12:15:23.790Z,20.26
2022-09-26T12:18:04.226Z,19.77
2022-09-26T12:21:15.991Z,19.56
2022-09-26T12:24:10.471Z,19.74
2022-09-26T12:27:06.411Z,19.95
2022-09-26T12:29:42.805Z,19.95
2022-09-26T12:32:27.414Z,20.14
2022-09-26T12:35:27.967Z,19.87
2022-09-26T12:38:32.902Z,20.02
2022-09-26T12:41:18.412Z,20.31
2022-09-26T12:44:12.745Z,21.48
2022-09-26T12:47:12.085Z,21.42
2022-09-26T12:49:51.008Z,20.89
2022-09-26T12:52:39.648Z,20.78
2022-09-26T12:55:28.955Z,20.61
2022-09-26T12:58:13.340Z,20.28
2022-09-26T13:01:12.239Z,19.84
2022-09-26T13:04:21.501Z,19.32
2022-09-26T13:07:20.294Z,19.04
2022-09-26T13:10:02.744Z,18.75
2022-09-26T13:12:45.897Z,18.79
2022-09-26T13:16:13.039Z,18.51
2022-09-26T13:18:51.711Z,18.19
2022-09-26T13:22:06.227Z,18.08
2022-09-26T13:24:46.722Z,17.90
2022-09-26T13:27:38.230Z,17.74
2022-09-26T13:30:18.186Z,17.49
2022-09-26T13:32:56.151Z,17.41
2022-09-26T13:35:25.531Z,17.35
2022-09-26T13:38:15.412Z,17.11
2022-09-26T13:41:26.904Z,16.97
2022-09-26T13:44:12.673Z,16.44
2022-09-26T13:46:39.941Z,16.33
2022-09-26T13:49:43.593Z,16.40
2022-09-26T13:52:20.056Z,16.31
2022-09-26T13:55:02.090Z,16.16
2022-09-26T13:57:46.748Z,16.10
2022-09-26T14:00:23.221Z,16.16
2022-09-26T14:03:13.885Z,16.13
2022-09-26T14:05:44.072Z,16.22
2022-09-26T14:08:48.567Z,16.23
2022-09-26T14:11:28.685Z,16.19
2022-09-26T14:14:24.325Z,16.13
2022-09-26T14:16:56.791Z,16.16
2022-09-26T14:19:53.614Z,16.19
2022-09-26T14:22:37.728Z,16.37
2022-09-26T14:25:42.835Z,16.19
2022-09-26T14:28:26.829Z,16.10
2022-09-26T14:31:15.671Z,16.07
2022-09-26T14:33:44.140Z,16.00
2022-09-26T14:36:35.516Z,15.97
2022-09-26T14:39:04.996Z,16.11
2022-09-26T14:41:34.860Z,16.25
2022-09-26T14:44:04.435Z,16.35
2022-09-26T14:46:34.296Z,16.37
2022-09-26T14:49:07.805Z,16.48
2022-09-26T14:51:38.990Z,16.54
2022-09-26T14:54:26.374Z,16.40
2022-09-26T14:57:21.585Z,16.31
2022-09-26T14:59:49.063Z,16.19
2022-09-26T15:02:25.830Z,16.21
2022-09-26T15:05:06.509Z,16.31
2022-09-26T15:07:43.642Z,16.25
2022-09-26T15:10:14.005Z,16.28
2022-09-26T15:12:57.404Z,16.25
2022-09-26T15:15:43.488Z,16.14
2022-09-26T15:18:29.005Z,16.11
2022-09-26T15:21:28.449Z,16.06
2022-09-26T15:23:57.378Z,16.12
2022-09-26T15:26:31.056Z,16.11
2022-09-26T15:28:59.461Z,16.01
2022-09-26T15:31:28.208Z,15.97
2022-09-26T15:34:00.938Z,15.95
2022-09-26T15:36:33.613Z,15.92
2022-09-26T15:39:01.678Z,15.91
2022-09-26T15:41:47.042Z,15.95
2022-09-26T15:44:20.314Z,15.95
2022-09-26T15:46:49.664Z,16.06
2022-09-26T15:49:22.210Z,16.11
2022-09-26T15:51:55.413Z,16.14
2022-09-26T15:54:28.606Z,16.04
2022-09-26T15:57:07.972Z,16.04
2022-09-26T15:59:41.158Z,16.02
2022-09-26T16:02:37.046Z,16.00
2022-09-26T16:05:04.269Z,15.91
2022-09-26T16:07:30.997Z,15.88
2022-09-26T16:09:58.386Z,15.89
2022-09-26T16:12:31.811Z,15.86
2022-09-26T16:15:05.847Z,15.77
2022-09-26T16:17:49.583Z,15.74
2022-09-26T16:20:16.469Z,15.76
2022-09-26T16:22:52.943Z,15.62
2022-09-26T16:25:47.586Z,15.60
2022-09-26T16:28:18.039Z,15.57
2022-09-26T16:31:06.855Z,15.55
2022-09-26T16:33:49.711Z,15.44
2022-09-26T16:36:44.594Z,15.32
2022-09-26T16:39:21.131Z,15.24
2022-09-26T16:42:02.449Z,15.25
2022-09-26T16:44:36.589Z,15.29
2022-09-26T16:47:06.641Z,15.28
2022-09-26T16:49:48.371Z,15.18
2022-09-26T16:52:31.159Z,15.13
2022-09-26T16:55:00.702Z,15.15
2022-09-26T16:57:33.157Z,15.11
2022-09-26T17:00:21.690Z,15.12
2022-09-26T17:02:48.646Z,15.16
2022-09-26T17:05:19.373Z,15.12
2022-09-26T17:07:47.839Z,15.02
2022-09-26T17:10:16.148Z,14.92
2022-09-26T17:12:43.103Z,14.88
2022-09-26T17:15:21.775Z,14.84
2022-09-26T17:17:48.845Z,14.85
2022-09-26T17:20:15.889Z,14.84
2022-09-26T17:22:43.036Z,14.84
2022-09-26T17:25:13.775Z,14.82
2022-09-26T17:27:42.176Z,14.71
2022-09-26T17:30:18.345Z,14.72
2022-09-26T17:32:50.275Z,14.70
2022-09-26T17:35:23.906Z,14.70
2022-09-26T17:37:51.728Z,14.71
2022-09-26T17:40:24.215Z,14.75
2022-09-26T17:42:55.235Z,14.65
2022-09-26T17:45:29.766Z,14.67
2022-09-26T17:48:00.829Z,14.70
2022-09-26T17:50:31.088Z,14.67
2022-09-26T17:53:00.987Z,14.69
2022-09-26T17:55:28.951Z,14.70
2022-09-26T17:57:57.634Z,14.66
2022-09-26T18:00:25.131Z,14.70
2022-09-26T18:03:01.404Z,14.64
2022-09-26T18:05:38.014Z,14.54
2022-09-26T18:08:20.899Z,14.51
2022-09-26T18:10:51.420Z,14.56
2022-09-26T18:13:26.128Z,14.60
2022-09-26T18:15:55.342Z,14.58
2022-09-26T18:18:24.489Z,14.58
2022-09-26T18:20:52.898Z,14.61
2022-09-26T18:23:24.753Z,14.60
2022-09-26T18:25:54.834Z,14.60
2022-09-26T18:28:23.405Z,14.59
2022-09-26T18:30:58.076Z,14.59
2022-09-26T18:33:27.781Z,14.57
2022-09-26T18:35:55.228Z,14.57
2022-09-26T18:38:22.409Z,14.57
2022-09-26T18:40:58.834Z,14.60
2022-09-26T18:43:38.985Z,14.63
2022-09-26T18:46:11.737Z,14.65
2022-09-26T18:48:38.619Z,14.68
2022-09-26T18:51:06.178Z,14.65
2022-09-26T18:53:37.578Z,14.62
2022-09-26T18:56:23.978Z,14.62
2022-09-26T18:58:51.301Z,14.61
2022-09-26T19:01:26.804Z,14.64
2022-09-26T19:03:55.121Z,14.66
2022-09-26T19:06:32.242Z,14.68
2022-09-26T19:09:02.231Z,14.68
2022-09-26T19:11:31.842Z,14.61
2022-09-26T19:14:29.601Z,14.58
2022-09-26T19:16:57.288Z,14.60
2022-09-26T19:19:25.339Z,14.59
2022-09-26T19:21:59.230Z,14.60
2022-09-26T19:24:33.468Z,14.58
2022-09-26T19:27:21.391Z,14.55
2022-09-26T19:30:12.754Z,14.53
2022-09-26T19:32:42.146Z,14.54
2022-09-26T19:35:22.501Z,14.56
2022-09-26T19:37:49.287Z,14.51
2022-09-26T19:40:18.322Z,14.53
2022-09-26T19:42:45.192Z,14.55
2022-09-26T19:45:13.014Z,14.51
2022-09-26T19:47:45.800Z,14.49
2022-09-26T19:50:17.783Z,14.50
2022-09-26T19:52:44.675Z,14.44
2022-09-26T19:55:14.742Z,14.44
2022-09-26T19:57:41.581Z,14.44
2022-09-26T20:00:11.038Z,14.44
2022-09-26T20:02:38.474Z,14.42
2022-09-26T20:05:17.892Z,14.31
2022-09-26T20:07:45.244Z,14.17
2022-09-26T20:10:25.008Z,14.15
2022-09-26T20:12:52.115Z,14.08
2022-09-26T20:15:22.985Z,14.06
2022-09-26T20:17:50.762Z,14.00
2022-09-26T20:20:21.190Z,13.87
2022-09-26T20:22:48.837Z,13.83
2022-09-26T20:25:26.546Z,13.76
2022-09-26T20:27:54.917Z,13.77
2022-09-26T20:30:40.870Z,13.78
2022-09-26T20:33:09.333Z,13.75
2022-09-26T20:35:41.450Z,13.73
2022-09-26T20:38:14.861Z,13.70
2022-09-26T20:40:41.803Z,13.74
2022-09-26T20:43:16.839Z,13.79
2022-09-26T20:45:44.804Z,13.72
2022-09-26T20:48:24.525Z,13.63
2022-09-26T20:50:51.511Z,13.57
2022-09-26T20:53:20.062Z,13.54
2022-09-26T20:55:47.756Z,13.55
2022-09-26T20:58:14.989Z,13.56
2022-09-26T21:00:43.268Z,13.44
2022-09-26T21:03:12.970Z,13.38
2022-09-26T21:05:40.098Z,13.26
2022-09-26T21:08:15.974Z,13.21
2022-09-26T21:10:42.636Z,13.23
2022-09-26T21:13:09.604Z,13.16
2022-09-26T21:15:36.838Z,13.12
2022-09-26T21:18:03.752Z,13.20
2022-09-26T21:20:32.976Z,13.23
2022-09-26T21:23:01.259Z,13.30
2022-09-26T21:25:32.114Z,13.35
2022-09-26T21:28:02.685Z,13.30
2022-09-26T21:30:30.644Z,13.34
2022-09-26T21:32:59.728Z,13.28
2022-09-26T21:35:32.017Z,13.26
2022-09-26T21:38:00.984Z,13.24
2022-09-26T21:40:31.685Z,13.20
2022-09-26T21:43:05.869Z,13.18
2022-09-26T21:45:32.790Z,13.14
2022-09-26T21:48:00.061Z,13.09
2022-09-26T21:50:28.851Z,12.98
2022-09-26T21:53:01.306Z,12.91
2022-09-26T21:55:33.547Z,12.88
2022-09-26T21:58:05.401Z,12.85
2022-09-26T22:00:32.142Z,12.77
2022-09-26T22:03:00.076Z,12.76
2022-09-26T22:05:27.118Z,12.67
2022-09-26T22:07:53.849Z,12.69
2022-09-26T22:10:20.605Z,12.69
2022-09-26T22:12:47.605Z,12.67
2022-09-26T22:15:14.347Z,12.61
2022-09-26T22:17:41.035Z,12.58
2022-09-26T22:20:08.216Z,12.61
2022-09-26T22:22:34.972Z,12.54
2022-09-26T22:25:04.109Z,12.45
2022-09-26T22:27:33.330Z,12.40
2022-09-26T22:30:00.156Z,12.40
2022-09-26T22:32:26.949Z,12.37
2022-09-26T22:34:53.903Z,12.31
2022-09-26T22:37:20.718Z,12.33
2022-09-26T22:39:47.956Z,12.27
2022-09-26T22:42:14.810Z,12.26
2022-09-26T22:44:41.566Z,12.23
2022-09-26T22:47:27.958Z,12.23
2022-09-26T22:49:54.708Z,12.18
2022-09-26T22:52:21.416Z,12.08
2022-09-26T22:54:48.117Z,12.03
2022-09-26T22:57:16.501Z,12.06
2022-09-26T22:59:43.242Z,12.08
2022-09-26T23:02:09.994Z,12.18
2022-09-26T23:04:48.692Z,12.18
2022-09-26T23:07:18.785Z,12.19
2022-09-26T23:09:45.541Z,12.14
2022-09-26T23:12:12.858Z,12.19
2022-09-26T23:14:39.632Z,12.18
2022-09-26T23:17:06.518Z,12.18
2022-09-26T23:19:33.517Z,12.19
2022-09-26T23:22:00.736Z,12.23
2022-09-26T23:24:27.662Z,12.21
2022-09-26T23:26:57.403Z,12.21
2022-09-26T23:29:25.149Z,12.18
2022-09-26T23:31:52.152Z,12.19
2022-09-26T23:34:18.926Z,12.21
2022-09-26T23:36:45.713Z,12.21
2022-09-26T23:39:12.453Z,12.21
2022-09-26T23:41:39.421Z,12.13
2022-09-26T23:44:06.469Z,12.04
2022-09-26T23:46:33.484Z,11.99
2022-09-26T23:49:00.340Z,11.99
2022-09-26T23:51:27.195Z,12.04
2022-09-26T23:53:55.172Z,11.99
2022-09-26T23:56:21.986Z,12.04
2022-09-26T23:58:49.371Z,12.06
